Hestrud (Nord, France) - 208 m
Donnes mto: Actuelle dimanche, 18/04/2021 12:29
Date Horaire Temp Out Temp. E. min Temp. E. max Temp. Sol 1 Hum Out Hum. Sol 1 Press Rain Wind Dir Dir Solar Ev.Tr. UV Hi Solar Rad Dew Point Windchill Wind (Gust)
18/04/2021 12:29 10,6 C 10,6 C 10,6 C 12,8 C 65 % 200 cb 1022,9 hPa 0,0 mm 8,0 km/h (2 Bft) NE 45 60 min 0,305 mm 2,9 UV-I 710 W/m 4,3 C 9,5 C 11,3 km/h (2 Bft)
18/04/2021 11:29 9,6 C 9,6 C 9,6 C 11,7 C 69 % 200 cb 1023,1 hPa 0,0 mm 9,7 km/h (2 Bft) NE 45 60 min 0,203 mm 2,2 UV-I 621 W/m 4,2 C 7,3 C 14,5 km/h (3 Bft)
18/04/2021 10:29 7,8 C 7,8 C 7,8 C 9,4 C 73 % 200 cb 1023,1 hPa 0,0 mm 11,3 km/h (2 Bft) N-NE 22 60 min 0,127 mm 1,7 UV-I 424 W/m 3,3 C 4,4 C 14,5 km/h (3 Bft)
18/04/2021 09:29 4,6 C 4,6 C 4,6 C 5,0 C 95 % 200 cb 1023,2 hPa 0,0 mm 6,4 km/h (2 Bft) NE 45 26 min 0,025 mm 1,0 UV-I 352 W/m 3,9 C 4,6 C 8,0 km/h (2 Bft)
18/04/2021 08:29 2,0 C 2,0 C 2,0 C 2,8 C 95 % 200 cb 1023,3 hPa 0,0 mm 3,2 km/h (1 Bft) N-NE 22 0 min 0,000 mm 0,0 UV-I 56 W/m 1,3 C 2,0 C 6,4 km/h (2 Bft)
18/04/2021 07:29 0,9 C 0,9 C 0,9 C 1,1 C 94 % 200 cb 1023,2 hPa 0,0 mm 1,6 km/h (1 Bft) N-NE 22 0 min 0,000 mm 0,0 UV-I 31 W/m 0,0 C 0,9 C 3,2 km/h (1 Bft)
18/04/2021 06:29 1,4 C 1,4 C 1,4 C 1,7 C 92 % 200 cb 1022,8 hPa 0,0 mm 1,6 km/h (1 Bft) N 360 0 min 0,000 mm 0,0 UV-I 0 W/m 0,2 C 1,4 C 3,2 km/h (1 Bft)
18/04/2021 05:29 2,3 C 2,3 C 2,4 C 2,8 C 91 % 200 cb 1023,0 hPa 0,0 mm 1,6 km/h (1 Bft) N 360 0 min 0,000 mm 0,0 UV-I 0 W/m 1,0 C 2,3 C 3,2 km/h (1 Bft)
18/04/2021 04:29 2,8 C 2,8 C 2,8 C 3,3 C 90 % 200 cb 1023,0 hPa 0,0 mm 1,6 km/h (1 Bft) N 360 0 min 0,000 mm 0,0 UV-I 0 W/m 1,3 C 2,8 C 1,6 km/h (1 Bft)
18/04/2021 03:29 2,7 C 2,7 C 2,7 C 3,3 C 91 % 200 cb 1023,4 hPa 0,0 mm 3,2 km/h (1 Bft) N 360 0 min 0,000 mm 0,0 UV-I 0 W/m 1,4 C 2,7 C 4,8 km/h (1 Bft)
18/04/2021 02:29 2,6 C 2,5 C 2,6 C 2,8 C 89 % 200 cb 1023,5 hPa 0,0 mm 1,6 km/h (1 Bft) N 360 0 min 0,000 mm 0,0 UV-I 0 W/m 1,0 C 2,6 C 6,4 km/h (2 Bft)
18/04/2021 01:29 3,2 C 3,2 C 3,2 C 3,3 C 87 % 200 cb 1023,8 hPa 0,0 mm 0,0 km/h (0 Bft) N 360 0 min 0,000 mm 0,0 UV-I 0 W/m 1,2 C 3,2 C 1,6 km/h (1 Bft)
18/04/2021 00:29 3,3 C 3,3 C 3,3 C 3,3 C 85 % 200 cb 1023,7 hPa 0,0 mm 1,6 km/h (1 Bft) N-NE 22 0 min 0,025 mm 0,0 UV-I 0 W/m 1,0 C 3,3 C 4,8 km/h (1 Bft)
17/04/2021 23:29 4,6 C 4,6 C 4,7 C 4,4 C 80 % 200 cb 1023,6 hPa 0,0 mm 1,6 km/h (1 Bft) N 360 0 min 0,025 mm 0,0 UV-I 0 W/m 1,5 C 4,6 C 3,2 km/h (1 Bft)
17/04/2021 22:29 5,7 C 5,7 C 5,7 C 5,6 C 77 % 200 cb 1023,6 hPa 0,0 mm 3,2 km/h (1 Bft) N 360 0 min 0,025 mm 0,0 UV-I 0 W/m 2,0 C 5,7 C 8,0 km/h (2 Bft)
17/04/2021 21:29 6,9 C 6,9 C 6,9 C 6,7 C 72 % 200 cb 1023,4 hPa 0,0 mm 9,7 km/h (2 Bft) N-NE 22 0 min 0,051 mm 0,0 UV-I 0 W/m 2,2 C 4,4 C 12,9 km/h (3 Bft)
17/04/2021 20:29 8,8 C 8,8 C 8,8 C 7,8 C 56 % 200 cb 1023,2 hPa 0,0 mm 3,2 km/h (1 Bft) N-NE 22 0 min 0,102 mm 0,0 UV-I 12 W/m 0,5 C 8,8 C 8,0 km/h (2 Bft)
17/04/2021 19:29 9,9 C 9,9 C 9,9 C 9,4 C 52 % 200 cb 1022,9 hPa 0,0 mm 12,9 km/h (3 Bft) NE 45 29 min 0,178 mm 0,0 UV-I 91 W/m 0,5 C 6,0 C 16,1 km/h (3 Bft)
17/04/2021 18:29 10,7 C 10,7 C 10,7 C 10,6 C 50 % 200 cb 1022,9 hPa 0,0 mm 16,1 km/h (3 Bft) E-NE 67 58 min 0,279 mm 0,5 UV-I 221 W/m 0,7 C 5,5 C 22,5 km/h (4 Bft)
17/04/2021 17:29 10,9 C 10,9 C 11,0 C 11,1 C 51 % 200 cb 1023,1 hPa 0,0 mm 17,7 km/h (3 Bft) E-NE 67 56 min 0,305 mm 1,2 UV-I 462 W/m 1,2 C 5,2 C 20,9 km/h (4 Bft)
17/04/2021 16:29 10,8 C 10,8 C 10,8 C 11,7 C 53 % 200 cb 1023,5 hPa 0,0 mm 12,9 km/h (3 Bft) E-NE 67 60 min 0,305 mm 1,9 UV-I 589 W/m 1,6 C 7,0 C 16,1 km/h (3 Bft)
17/04/2021 15:29 10,3 C 10,3 C 10,3 C 11,7 C 56 % 200 cb 1024,1 hPa 0,0 mm 8,0 km/h (2 Bft) NE 45 60 min 0,330 mm 2,3 UV-I 812 W/m 1,9 C 9,2 C 9,7 km/h (2 Bft)
17/04/2021 14:29 9,9 C 9,9 C 10,0 C 11,1 C 56 % 200 cb 1024,7 hPa 0,0 mm 16,1 km/h (3 Bft) N-NE 22 60 min 0,381 mm 2,1 UV-I 274 W/m 1,5 C 4,6 C 22,5 km/h (4 Bft)
17/04/2021 13:29 9,7 C 9,7 C 9,7 C 11,7 C 59 % 200 cb 1025,1 hPa 0,0 mm 16,1 km/h (3 Bft) E-NE 67 29 min 0,356 mm 2,9 UV-I 861 W/m 2,1 C 4,3 C 20,9 km/h (4 Bft)
17/04/2021 13:00 9,6 C 9,6 C 9,6 C 11,7 C 65 % 200 cb 1025,3 hPa 0,0 mm 14,5 km/h (3 Bft) E 90 0 min 0,356 mm 2,3 UV-I 761 W/m 3,4 C 4,9 C 22,5 km/h (4 Bft)
_ Min-Heure 07:07 07:07 07:09 06:47 17:43 13:00 18:26 - 20:28 - - - - - - 07:07 07:07 00:02
Minimum _ 0,9 C 0,9 C 0,9 C 1,1 C 49 % 200 cb 1022,8 hPa - 0,0 km/h (0 Bft) - - - - - - -0,1 C 0,9 C 0,0 km/h (0 Bft)
_ Max-Heure 17:00 17:01 17:00 12:29 08:30 13:00 13:00 13:00 13:59 - - 13:00 14:00 13:45 14:07 12:21 12:24 13:59
Maximum _ 11,1 C 11,1 C 11,1 C 12,8 C 96 % 200 cb 1025,3 hPa 0,0 mm 20,9 km/h
NE (4 Bft)
- - 1 min 0,381 mm 3,6 UV-I 930 W/m 4,8 C 10,6 C 32,2 km/h
N-NE (5 Bft)
Moyenne _ 6,5 C 6,5 C 6,5 C 7,2 C 74 % 200 cb 1023,6 hPa #0,0 mm 7,5 km/h (2 Bft) N - #3:26 h #0,685 mm 1,8 UV-I 144 W/m 1,8 C 4,7 C 11,1 km/h (2 Bft)